createdAt,value
2018-08-18T00:01:04.965Z,12.5
2018-08-18T00:06:05.549Z,12.3
2018-08-18T00:11:05.693Z,12.3
2018-08-18T00:16:05.892Z,12.2
2018-08-18T00:21:05.984Z,12.2
2018-08-18T00:26:05.952Z,12.1
2018-08-18T00:31:05.103Z,12.1
2018-08-18T00:36:05.951Z,11.9
2018-08-18T00:41:05.753Z,11.9
2018-08-18T00:46:05.620Z,11.8
2018-08-18T00:51:06.046Z,11.8
2018-08-18T00:56:04.982Z,11.6
2018-08-18T01:01:05.422Z,11.6
2018-08-18T01:06:05.896Z,11.5
2018-08-18T01:11:05.840Z,11.5
2018-08-18T01:16:05.180Z,11.3
2018-08-18T01:21:06.092Z,11.3
2018-08-18T01:26:05.136Z,11.2
2018-08-18T01:31:05.831Z,11.2
2018-08-18T01:36:06.081Z,11.1
2018-08-18T01:41:05.767Z,11.1
2018-08-18T01:46:06.169Z,10.9
2018-08-18T01:51:06.066Z,10.9
2018-08-18T01:56:05.943Z,10.9
2018-08-18T02:01:05.229Z,10.9
2018-08-18T02:06:05.626Z,10.8
2018-08-18T02:11:05.990Z,10.8
2018-08-18T02:16:05.846Z,10.8
2018-08-18T02:21:05.152Z,10.8
2018-08-18T02:26:05.418Z,10.7
2018-08-18T02:31:05.344Z,10.7
2018-08-18T02:36:06.025Z,10.6
2018-08-18T02:41:05.836Z,10.6
2018-08-18T02:46:06.080Z,10.5
2018-08-18T02:51:05.648Z,10.5
2018-08-18T02:56:05.540Z,10.4
2018-08-18T03:01:05.926Z,10.4
2018-08-18T03:06:06.097Z,10.3
2018-08-18T03:11:05.780Z,10.3
2018-08-18T03:16:05.924Z,10.2
2018-08-18T03:21:06.028Z,10.2
2018-08-18T03:26:05.801Z,10.2
2018-08-18T03:31:06.053Z,10.2
2018-08-18T03:36:05.497Z,10.1
2018-08-18T03:41:05.847Z,10.1
2018-08-18T03:46:05.985Z,10
2018-08-18T03:51:05.903Z,10
2018-08-18T03:56:05.721Z,9.9
2018-08-18T04:01:05.760Z,9.9
2018-08-18T04:06:05.981Z,9.8
2018-08-18T04:11:05.841Z,9.8
2018-08-18T04:16:05.824Z,9.7
2018-08-18T04:21:05.725Z,9.7
2018-08-18T04:26:06.140Z,9.6
2018-08-18T04:31:06.081Z,9.6
2018-08-18T04:36:06.254Z,9.6
2018-08-18T04:41:05.874Z,9.6
2018-08-18T04:46:05.876Z,9.6
2018-08-18T04:51:06.142Z,9.6
2018-08-18T04:56:05.642Z,9.5
2018-08-18T05:01:05.417Z,9.5
2018-08-18T05:06:05.901Z,9.5
2018-08-18T05:11:05.813Z,9.5
2018-08-18T05:16:05.786Z,9.5
2018-08-18T05:21:05.804Z,9.5
2018-08-18T05:26:06.010Z,9.7
2018-08-18T05:31:05.571Z,9.7
2018-08-18T05:36:05.609Z,9.9
2018-08-18T05:41:05.754Z,9.9
2018-08-18T05:46:06.268Z,10.2
2018-08-18T05:51:05.509Z,10.2
2018-08-18T05:56:05.904Z,10.7
2018-08-18T06:01:06.183Z,10.7
2018-08-18T06:06:05.931Z,11.2
2018-08-18T06:11:06.051Z,11.2
2018-08-18T06:16:05.792Z,11.6
2018-08-18T06:21:05.980Z,11.6
2018-08-18T06:26:05.903Z,11.9
2018-08-18T06:31:05.657Z,11.9
2018-08-18T06:36:05.800Z,12.4
2018-08-18T06:41:05.979Z,12.4
2018-08-18T06:46:05.561Z,12.9
2018-08-18T06:51:05.979Z,12.9
2018-08-18T06:56:06.223Z,13.7
2018-08-18T07:01:05.918Z,13.7
2018-08-18T07:06:05.811Z,14.5
2018-08-18T07:11:06.055Z,14.5
2018-08-18T07:16:06.093Z,15.2
2018-08-18T07:21:06.110Z,15.2
2018-08-18T07:26:06.086Z,15.8
2018-08-18T07:31:05.639Z,15.8
2018-08-18T07:36:06.233Z,17.1
2018-08-18T07:41:05.619Z,17.1
2018-08-18T07:46:05.989Z,18.5
2018-08-18T07:51:06.396Z,18.5
2018-08-18T07:56:05.872Z,19.6
2018-08-18T08:01:05.897Z,19.6
2018-08-18T08:06:05.921Z,20.3
2018-08-18T08:11:06.147Z,20.3
2018-08-18T08:16:05.839Z,20.9
2018-08-18T08:21:06.237Z,20.9
2018-08-18T08:26:06.090Z,21.1
2018-08-18T08:31:05.857Z,21.1
2018-08-18T08:36:06.393Z,21.4
2018-08-18T08:41:05.949Z,21.4
2018-08-18T08:46:06.139Z,21.6
2018-08-18T08:51:05.787Z,21.6
2018-08-18T08:56:05.796Z,21.9
2018-08-18T09:01:05.867Z,21.9
2018-08-18T09:06:05.918Z,22.2
2018-08-18T09:11:06.527Z,22.2
2018-08-18T09:16:06.203Z,22.5
2018-08-18T09:21:06.584Z,22.5
2018-08-18T09:26:05.875Z,22.2
2018-08-18T09:31:06.104Z,22.2
2018-08-18T09:41:06.415Z,22.1
2018-08-18T09:46:05.555Z,22.1
2018-08-18T09:51:06.394Z,22.6
2018-08-18T09:56:05.923Z,22.5
2018-08-18T10:01:06.165Z,22.5
2018-08-18T10:06:05.912Z,22.4
2018-08-18T10:11:05.711Z,22.4
2018-08-18T10:16:06.043Z,22.4
2018-08-18T10:21:06.334Z,22.4
2018-08-18T10:26:06.075Z,23.4
2018-08-18T10:31:06.184Z,23.4
2018-08-18T10:36:06.227Z,23.7
2018-08-18T10:41:06.464Z,23.7
2018-08-18T10:46:06.292Z,23.4
2018-08-18T10:51:05.847Z,23.4
2018-08-18T10:56:06.037Z,24.2
2018-08-18T11:01:06.278Z,24.2
2018-08-18T11:06:06.380Z,24.3
2018-08-18T11:11:06.057Z,24.3
2018-08-18T11:16:06.474Z,24.3
2018-08-18T11:21:05.731Z,24.3
2018-08-18T11:26:06.049Z,24.8
2018-08-18T11:31:06.435Z,24.8
2018-08-18T11:36:06.039Z,25.2
2018-08-18T11:41:06.658Z,25.2
2018-08-18T11:46:06.078Z,24.9
2018-08-18T11:51:06.542Z,24.9
2018-08-18T11:56:06.019Z,25.3
2018-08-18T12:01:06.384Z,25.3
2018-08-18T12:06:06.385Z,25.3
2018-08-18T12:11:06.533Z,25.3
2018-08-18T12:16:06.524Z,25.3
2018-08-18T12:21:05.789Z,25.3
2018-08-18T12:26:06.520Z,25.5
2018-08-18T12:31:05.805Z,25.5
2018-08-18T12:36:06.530Z,25.8
2018-08-18T12:41:05.887Z,25.8
2018-08-18T12:46:06.383Z,25.8
2018-08-18T12:51:06.637Z,25.8
2018-08-18T12:56:06.245Z,25.8
2018-08-18T13:01:06.092Z,25.8
2018-08-18T13:06:06.524Z,26.1
2018-08-18T13:11:06.344Z,26.1
2018-08-18T13:16:06.109Z,25.8
2018-08-18T13:21:06.570Z,25.8
2018-08-18T13:26:06.292Z,26
2018-08-18T13:31:06.282Z,26
2018-08-18T13:36:06.161Z,26.1
2018-08-18T13:41:06.489Z,26.1
2018-08-18T13:46:06.245Z,26.6
2018-08-18T13:51:06.757Z,26.6
2018-08-18T13:56:06.284Z,26.6
2018-08-18T14:01:05.938Z,26.6
2018-08-18T14:06:06.370Z,26.4
2018-08-18T14:11:06.271Z,26.4
2018-08-18T14:16:06.002Z,26.5
2018-08-18T14:21:06.313Z,26.5
2018-08-18T14:26:06.538Z,26.7
2018-08-18T14:31:06.261Z,26.7
2018-08-18T14:36:06.805Z,26.7
2018-08-18T14:41:06.566Z,26.7
2018-08-18T14:46:06.849Z,26.3
2018-08-18T14:51:06.337Z,26.3
2018-08-18T14:56:06.795Z,26.1
2018-08-18T15:01:06.348Z,26.1
2018-08-18T15:06:06.826Z,25.9
2018-08-18T15:11:06.094Z,25.9
2018-08-18T15:16:06.750Z,25.9
2018-08-18T15:21:06.754Z,25.9
2018-08-18T15:26:06.287Z,25.6
2018-08-18T15:31:06.920Z,25.6
2018-08-18T15:36:06.311Z,25.5
2018-08-18T15:41:06.558Z,25.5
2018-08-18T15:46:06.679Z,25.3
2018-08-18T15:51:07.129Z,25.3
2018-08-18T15:56:06.221Z,25
2018-08-18T16:01:06.684Z,25
2018-08-18T16:06:06.398Z,24.8
2018-08-18T16:11:07.072Z,24.8
2018-08-18T16:16:06.528Z,24.8
2018-08-18T16:21:06.752Z,24.8
2018-08-18T16:26:06.229Z,24.8
2018-08-18T16:31:06.413Z,24.8
2018-08-18T16:36:06.514Z,24.7
2018-08-18T16:41:06.322Z,24.7
2018-08-18T16:46:06.547Z,24.6
2018-08-18T16:51:06.461Z,24.6
2018-08-18T16:56:06.291Z,24.4
2018-08-18T17:01:06.384Z,24.4
2018-08-18T17:06:06.700Z,24.2
2018-08-18T17:11:07.125Z,24.2
2018-08-18T17:16:06.471Z,24
2018-08-18T17:21:07.138Z,24
2018-08-18T17:26:06.252Z,23.8
2018-08-18T17:31:06.243Z,23.8
2018-08-18T17:36:06.585Z,23.6
2018-08-18T17:41:06.866Z,23.6
2018-08-18T17:46:06.375Z,23.4
2018-08-18T17:51:06.689Z,23.4
2018-08-18T17:56:06.255Z,23.3
2018-08-18T18:01:06.489Z,23.3
2018-08-18T18:06:06.847Z,23.1
2018-08-18T18:11:07.228Z,23.1
2018-08-18T18:16:06.244Z,22.9
2018-08-18T18:21:06.255Z,22.9
2018-08-18T18:26:06.435Z,22.8
2018-08-18T18:31:06.976Z,22.8
2018-08-18T18:36:06.451Z,22.7
2018-08-18T18:41:06.727Z,22.7
2018-08-18T18:46:06.954Z,22.4
2018-08-18T18:51:07.294Z,22.4
2018-08-18T18:56:06.540Z,22.1
2018-08-18T19:01:07.193Z,22.1
2018-08-18T19:06:06.765Z,21.8
2018-08-18T19:11:07.220Z,21.8
2018-08-18T19:16:06.327Z,21.6
2018-08-18T19:21:06.449Z,21.6
2018-08-18T19:26:06.704Z,21.3
2018-08-18T19:31:06.815Z,21.3
2018-08-18T19:36:07.259Z,20.9
2018-08-18T19:41:06.975Z,20.9
2018-08-18T19:46:07.248Z,20.6
2018-08-18T19:51:06.613Z,20.6
2018-08-18T19:56:07.026Z,20.3
2018-08-18T20:01:06.644Z,20.3
2018-08-18T20:06:06.671Z,19.9
2018-08-18T20:11:07.107Z,19.9
2018-08-18T20:16:06.897Z,19.6
2018-08-18T20:21:06.929Z,19.6
2018-08-18T20:26:07.086Z,19.3
2018-08-18T20:31:06.933Z,19.3
2018-08-18T20:36:06.431Z,19.1
2018-08-18T20:41:06.561Z,19.1
2018-08-18T20:46:07.457Z,18.8
2018-08-18T20:51:06.707Z,18.8
2018-08-18T20:56:06.862Z,18.5
2018-08-18T21:01:07.278Z,18.5
2018-08-18T21:06:07.221Z,18.3
2018-08-18T21:11:06.608Z,18.3
2018-08-18T21:16:07.010Z,18.1
2018-08-18T21:21:07.282Z,18.1
2018-08-18T21:26:06.978Z,17.8
2018-08-18T21:31:07.399Z,17.8
2018-08-18T21:36:06.969Z,17.6
2018-08-18T21:41:07.257Z,17.6
2018-08-18T21:46:06.931Z,17.4
2018-08-18T21:51:07.208Z,17.4
2018-08-18T21:56:06.950Z,17.3
2018-08-18T22:01:06.612Z,17.3
2018-08-18T22:06:07.233Z,17.1
2018-08-18T22:11:07.415Z,17.1
2018-08-18T22:16:06.988Z,16.9
2018-08-18T22:21:06.735Z,16.9
2018-08-18T22:26:07.313Z,16.8
2018-08-18T22:31:06.619Z,16.8
2018-08-18T22:36:06.819Z,16.7
2018-08-18T22:41:07.284Z,16.7
2018-08-18T22:46:06.940Z,16.6
2018-08-18T22:51:07.226Z,16.6
2018-08-18T22:56:06.841Z,16.4
2018-08-18T23:01:06.852Z,16.4
2018-08-18T23:06:07.345Z,16.3
2018-08-18T23:11:06.919Z,16.3
2018-08-18T23:16:07.206Z,16.1
2018-08-18T23:21:07.406Z,16.1
2018-08-18T23:26:06.983Z,15.9
2018-08-18T23:31:07.252Z,15.9
2018-08-18T23:36:07.189Z,15.8
2018-08-18T23:41:07.351Z,15.8
2018-08-18T23:46:06.987Z,15.7
2018-08-18T23:51:07.433Z,15.7
2018-08-18T23:56:06.879Z,15.6
